createdAt,value
2023-01-15T00:00:12.487Z,13.00
2023-01-15T00:03:01.193Z,18.33
2023-01-15T00:05:30.114Z,24.50
2023-01-15T00:07:59.000Z,16.00
2023-01-15T00:10:29.835Z,16.00
2023-01-15T00:12:58.723Z,21.33
2023-01-15T00:15:27.611Z,19.00
2023-01-15T00:17:56.406Z,16.00
2023-01-15T00:20:25.289Z,17.33
2023-01-15T00:22:54.091Z,7.00
2023-01-15T00:25:41.296Z,10.00
2023-01-15T00:28:14.370Z,15.00
2023-01-15T00:30:44.205Z,22.00
2023-01-15T00:33:13.089Z,19.00
2023-01-15T00:35:42.283Z,20.00
2023-01-15T00:38:11.587Z,9.00
2023-01-15T00:40:40.373Z,15.33
2023-01-15T00:43:09.159Z,21.50
2023-01-15T00:45:39.690Z,16.50
2023-01-15T00:48:09.291Z,23.00
2023-01-15T00:50:37.990Z,25.00
2023-01-15T00:53:06.776Z,24.00
2023-01-15T00:55:35.862Z,16.33
2023-01-15T00:58:04.752Z,20.00
2023-01-15T01:00:33.571Z,16.00
2023-01-15T01:03:02.533Z,18.33
2023-01-15T01:05:32.241Z,16.67
2023-01-15T01:08:01.549Z,13.67
2023-01-15T01:10:31.251Z,16.50
2023-01-15T01:13:00.143Z,13.00
2023-01-15T01:15:29.036Z,18.00
2023-01-15T01:17:58.333Z,16.67
2023-01-15T01:20:27.323Z,10.00
2023-01-15T01:22:56.220Z,12.50
2023-01-15T01:25:25.110Z,13.50
2023-01-15T01:27:54.095Z,19.00
2023-01-15T01:30:23.394Z,18.00
2023-01-15T01:32:52.387Z,12.50
2023-01-15T01:35:21.892Z,15.00
2023-01-15T01:37:51.915Z,13.33
2023-01-15T01:40:20.912Z,6.00
2023-01-15T01:42:49.891Z,6.00
2023-01-15T01:45:25.213Z,11.00
2023-01-15T01:47:59.861Z,12.33
2023-01-15T01:50:31.746Z,9.50
2023-01-15T01:53:06.423Z,14.33
2023-01-15T01:55:36.583Z,6.50
2023-01-15T01:58:10.165Z,14.00
2023-01-15T02:00:42.400Z,6.50
2023-01-15T02:03:11.631Z,9.00
2023-01-15T02:05:44.169Z,11.00
2023-01-15T02:08:13.314Z,11.33
2023-01-15T02:10:42.397Z,11.33
2023-01-15T02:13:20.402Z,9.50
2023-01-15T02:15:56.569Z,10.00
2023-01-15T02:18:39.381Z,7.67
2023-01-15T02:21:19.430Z,13.50
2023-01-15T02:23:57.435Z,13.00
2023-01-15T02:27:11.482Z,10.00
2023-01-15T02:29:46.728Z,11.00
2023-01-15T02:32:39.366Z,3.67
2023-01-15T02:35:28.123Z,13.67
2023-01-15T02:38:01.467Z,9.67
2023-01-15T02:40:32.053Z,7.00
2023-01-15T02:43:01.654Z,7.00
2023-01-15T02:45:37.450Z,12.50
2023-01-15T02:48:14.183Z,9.50
2023-01-15T02:50:49.111Z,15.00
2023-01-15T02:53:24.033Z,9.00
2023-01-15T02:55:58.471Z,5.00
2023-01-15T02:58:34.828Z,15.00
2023-01-15T03:01:12.499Z,15.00
2023-01-15T03:04:10.705Z,13.00
2023-01-15T03:06:42.458Z,6.75
2023-01-15T03:09:15.034Z,15.00
2023-01-15T03:11:50.173Z,6.00
2023-01-15T03:14:42.313Z,12.00
2023-01-15T03:17:24.551Z,16.75
2023-01-15T03:20:14.390Z,9.00
2023-01-15T03:22:49.939Z,13.00
2023-01-15T03:25:24.985Z,10.00
2023-01-15T03:27:58.473Z,9.50
2023-01-15T03:30:28.501Z,9.50
2023-01-15T03:32:57.478Z,13.67
2023-01-15T03:35:44.808Z,10.00
2023-01-15T03:38:18.104Z,12.00
2023-01-15T03:41:07.670Z,14.00
2023-01-15T03:44:01.695Z,10.00
2023-01-15T03:46:49.734Z,6.00
2023-01-15T03:49:32.808Z,12.00
2023-01-15T03:52:04.470Z,9.00
2023-01-15T03:55:07.249Z,9.67
2023-01-15T03:57:57.541Z,11.00
2023-01-15T04:00:54.649Z,8.33
2023-01-15T04:03:26.939Z,8.00
2023-01-15T04:05:59.595Z,9.00
2023-01-15T04:08:35.599Z,11.00
2023-01-15T04:11:05.204Z,10.50
2023-01-15T04:13:39.417Z,9.75
2023-01-15T04:16:11.083Z,8.50
2023-01-15T04:18:39.863Z,10.00
2023-01-15T04:21:09.912Z,4.25
2023-01-15T04:23:38.767Z,6.00
2023-01-15T04:26:07.949Z,3.25
2023-01-15T04:28:36.755Z,7.00
2023-01-15T04:31:05.796Z,6.50
2023-01-15T04:33:34.942Z,12.67
2023-01-15T04:36:04.580Z,12.25
2023-01-15T04:38:33.542Z,13.00
2023-01-15T04:44:09.113Z,7.00
2023-01-15T04:46:42.147Z,9.00
2023-01-15T04:49:13.987Z,8.50
2023-01-15T04:51:43.887Z,9.50
2023-01-15T04:54:15.623Z,5.00
2023-01-15T04:56:48.307Z,13.00
2023-01-15T04:59:19.854Z,15.00
2023-01-15T05:02:02.596Z,7.00
2023-01-15T05:04:34.289Z,12.00
2023-01-15T05:07:05.506Z,12.00
2023-01-15T05:09:34.672Z,9.00
2023-01-15T05:12:03.590Z,15.00
2023-01-15T05:14:33.375Z,9.00
2023-01-15T05:17:02.158Z,10.00
2023-01-15T05:19:31.149Z,12.75
2023-01-15T05:22:00.150Z,9.75
2023-01-15T05:24:29.240Z,7.00
2023-01-15T05:26:58.641Z,5.00
2023-01-15T05:29:27.332Z,8.00
2023-01-15T05:31:57.036Z,14.67
2023-01-15T05:34:25.819Z,9.00
2023-01-15T05:36:54.915Z,9.00
2023-01-15T05:39:23.810Z,12.33
2023-01-15T05:41:53.421Z,13.00
2023-01-15T05:44:25.729Z,9.00
2023-01-15T05:46:58.058Z,7.50
2023-01-15T05:49:30.063Z,11.50
2023-01-15T05:52:00.836Z,9.50
2023-01-15T05:54:32.671Z,12.50
2023-01-15T05:57:02.545Z,13.00
2023-01-15T05:59:33.071Z,5.00
2023-01-15T06:02:01.853Z,9.33
2023-01-15T06:04:31.464Z,12.00
2023-01-15T06:07:00.145Z,12.67
2023-01-15T06:09:29.854Z,9.00
2023-01-15T06:11:58.758Z,17.75
2023-01-15T06:14:27.725Z,16.00
2023-01-15T06:16:56.612Z,18.00
2023-01-15T06:19:25.606Z,15.00
2023-01-15T06:21:54.598Z,15.00
2023-01-15T06:24:23.487Z,30.00
2023-01-15T06:26:52.482Z,11.00
2023-01-15T06:29:21.499Z,12.00
2023-01-15T06:31:50.668Z,17.00
2023-01-15T06:34:19.664Z,7.67
2023-01-15T06:36:48.764Z,10.33
2023-01-15T06:39:18.060Z,15.50
2023-01-15T06:42:05.583Z,18.50
2023-01-15T06:44:53.531Z,10.00
2023-01-15T06:47:23.715Z,13.00
2023-01-15T06:49:58.111Z,9.00
2023-01-15T06:52:28.764Z,18.50
2023-01-15T06:54:57.695Z,18.50
2023-01-15T06:57:26.473Z,18.33
2023-01-15T06:59:55.265Z,12.00
2023-01-15T07:02:24.664Z,10.00
2023-01-15T07:04:54.789Z,19.67
2023-01-15T07:07:24.384Z,12.00
2023-01-15T07:09:53.177Z,13.00
2023-01-15T07:12:22.881Z,21.33
2023-01-15T07:14:52.800Z,19.33
2023-01-15T07:17:21.789Z,10.00
2023-01-15T07:19:50.883Z,15.00
2023-01-15T07:22:19.775Z,16.00
2023-01-15T07:24:49.073Z,16.00
2023-01-15T07:27:18.168Z,18.00
2023-01-15T07:29:48.292Z,12.00
2023-01-15T07:32:17.494Z,12.50
2023-01-15T07:34:46.580Z,1.00
2023-01-15T07:37:18.851Z,11.67
2023-01-15T07:39:47.841Z,21.50
2023-01-15T07:42:35.680Z,21.00
2023-01-15T07:45:23.471Z,18.00
2023-01-15T07:48:11.103Z,3.33
2023-01-15T07:50:40.129Z,18.67
2023-01-15T07:53:08.816Z,13.00
2023-01-15T07:55:38.954Z,16.00
2023-01-15T07:58:07.624Z,9.33
2023-01-15T08:00:37.514Z,12.33
2023-01-15T08:03:06.769Z,12.50
2023-01-15T08:05:37.169Z,21.00
2023-01-15T08:08:15.476Z,15.00
2023-01-15T08:11:04.042Z,10.50
2023-01-15T08:13:51.546Z,18.50
2023-01-15T08:16:21.987Z,24.00
2023-01-15T08:18:50.867Z,12.00
2023-01-15T08:21:20.367Z,9.25
2023-01-15T08:23:51.516Z,10.00
2023-01-15T08:26:20.604Z,9.67
2023-01-15T08:28:49.604Z,18.00
2023-01-15T08:31:18.619Z,16.00
2023-01-15T08:33:48.708Z,13.00
2023-01-15T08:36:18.624Z,16.00
2023-01-15T08:38:50.251Z,15.50
2023-01-15T08:41:19.173Z,14.50
2023-01-15T08:43:48.058Z,15.00
2023-01-15T08:46:17.152Z,16.67
2023-01-15T08:48:46.145Z,16.00
2023-01-15T08:51:15.341Z,12.50
2023-01-15T08:53:44.026Z,17.00
2023-01-15T08:56:21.146Z,8.50
2023-01-15T08:58:51.232Z,17.00
2023-01-15T09:01:20.291Z,15.33
2023-01-15T09:03:49.943Z,18.50
2023-01-15T09:06:18.929Z,28.50
2023-01-15T09:08:47.922Z,36.50
2023-01-15T09:11:16.812Z,24.00
2023-01-15T09:13:48.050Z,49.00
2023-01-15T09:16:17.640Z,64.50
2023-01-15T09:18:46.756Z,48.00
2023-01-15T09:21:15.755Z,40.00
2023-01-15T09:23:44.633Z,34.67
2023-01-15T09:26:28.187Z,16.00
2023-01-15T09:28:57.674Z,24.00
2023-01-15T09:31:29.116Z,28.00
2023-01-15T09:33:59.576Z,23.33
2023-01-15T09:36:34.701Z,17.00
2023-01-15T09:39:05.110Z,16.00
2023-01-15T09:42:06.892Z,24.33
2023-01-15T09:44:57.676Z,29.50
2023-01-15T09:47:55.074Z,15.00
2023-01-15T09:50:53.414Z,29.33
2023-01-15T09:53:47.598Z,23.25
2023-01-15T09:56:30.745Z,27.50
2023-01-15T09:59:06.061Z,15.33
2023-01-15T10:01:35.630Z,17.33
2023-01-15T10:04:16.728Z,21.50
2023-01-15T10:06:56.385Z,31.33
2023-01-15T10:09:35.518Z,21.33
2023-01-15T10:12:34.817Z,12.00
2023-01-15T10:15:13.849Z,18.00
2023-01-15T10:17:49.576Z,14.00
2023-01-15T10:20:38.455Z,22.00
2023-01-15T10:23:38.475Z,31.00
2023-01-15T10:26:25.490Z,31.00
2023-01-15T10:29:32.272Z,45.50
2023-01-15T10:32:08.428Z,47.50
2023-01-15T10:35:04.222Z,42.00
2023-01-15T10:38:01.816Z,54.50
2023-01-15T10:40:40.331Z,29.67
2023-01-15T10:43:31.802Z,47.50
2023-01-15T10:46:07.975Z,63.33
2023-01-15T10:48:50.934Z,55.00
2023-01-15T10:51:54.232Z,31.00
2023-01-15T10:54:33.673Z,30.50
2023-01-15T10:57:33.786Z,19.67
2023-01-15T11:00:04.312Z,21.33
2023-01-15T11:02:47.444Z,15.50
2023-01-15T11:05:19.996Z,19.50
2023-01-15T11:08:28.340Z,26.67
2023-01-15T11:10:42.984Z,30.33
2023-01-15T11:13:39.645Z,26.00
2023-01-15T11:16:36.106Z,37.33
2023-01-15T11:19:26.369Z,23.50
2023-01-15T11:21:55.957Z,14.00
2023-01-15T11:24:26.287Z,22.50
2023-01-15T11:26:55.682Z,13.33
2023-01-15T11:29:46.795Z,25.00
2023-01-15T11:32:27.565Z,23.00
2023-01-15T11:35:02.785Z,14.00
2023-01-15T11:37:32.006Z,12.50
2023-01-15T11:40:08.170Z,34.50
2023-01-15T11:43:08.590Z,28.00
2023-01-15T11:46:11.158Z,23.00
2023-01-15T11:49:08.875Z,23.67
2023-01-15T11:51:49.102Z,41.00
2023-01-15T11:54:18.287Z,59.33
2023-01-15T11:56:47.278Z,29.00
2023-01-15T11:59:20.241Z,16.00
2023-01-15T12:02:00.480Z,34.00
2023-01-15T12:04:54.119Z,26.00
2023-01-15T12:07:26.361Z,18.67
2023-01-15T12:10:04.176Z,27.67
2023-01-15T12:13:08.788Z,32.33
2023-01-15T12:15:57.342Z,24.00
2023-01-15T12:18:48.048Z,34.00
2023-01-15T12:21:34.444Z,27.00
2023-01-15T12:24:28.016Z,32.00
2023-01-15T12:27:15.754Z,17.00
2023-01-15T12:29:52.208Z,42.50
2023-01-15T12:32:31.394Z,37.00
2023-01-15T12:35:11.391Z,32.33
2023-01-15T12:37:54.205Z,52.00
2023-01-15T12:40:29.445Z,32.00
2023-01-15T12:43:18.817Z,51.33
2023-01-15T12:45:53.845Z,40.50
2023-01-15T12:48:44.369Z,34.33
2023-01-15T12:51:19.687Z,48.50
2023-01-15T12:53:56.978Z,56.00
2023-01-15T12:56:42.556Z,62.00
2023-01-15T12:59:54.048Z,63.00
2023-01-15T13:02:36.620Z,62.50
2023-01-15T13:05:30.022Z,65.00
2023-01-15T13:08:01.889Z,64.00
2023-01-15T13:10:35.519Z,65.00
2023-01-15T13:13:18.101Z,68.00
2023-01-15T13:16:16.698Z,48.00
2023-01-15T13:19:13.834Z,68.00
2023-01-15T13:21:46.336Z,66.00
2023-01-15T13:24:15.091Z,60.33
2023-01-15T13:26:49.717Z,61.75
2023-01-15T13:29:39.514Z,65.00
2023-01-15T13:32:24.059Z,62.33
2023-01-15T13:35:07.387Z,73.00
2023-01-15T13:37:52.130Z,61.00
2023-01-15T13:40:29.532Z,65.67
2023-01-15T13:42:58.923Z,68.67
2023-01-15T13:45:34.531Z,68.25
2023-01-15T13:48:20.573Z,37.00
2023-01-15T13:50:54.425Z,41.50
2023-01-15T13:53:37.396Z,33.67
2023-01-15T13:56:10.653Z,27.00
2023-01-15T13:58:53.651Z,36.00
2023-01-15T14:01:30.168Z,35.00
2023-01-15T14:04:14.433Z,36.50
2023-01-15T14:06:51.975Z,24.00
2023-01-15T14:09:20.817Z,33.50
2023-01-15T14:11:58.923Z,21.33
2023-01-15T14:14:46.860Z,20.00
2023-01-15T14:17:35.723Z,30.00
2023-01-15T14:20:34.201Z,22.00
2023-01-15T14:23:23.262Z,19.33
2023-01-15T14:26:13.662Z,27.67
2023-01-15T14:29:06.829Z,37.50
2023-01-15T14:31:51.227Z,31.67
2023-01-15T14:34:28.676Z,30.50
2023-01-15T14:37:02.362Z,23.00
2023-01-15T14:39:53.165Z,22.67
2023-01-15T14:42:40.603Z,27.00
2023-01-15T14:45:12.150Z,39.50
2023-01-15T14:47:56.381Z,27.25
2023-01-15T14:50:34.752Z,15.00
2023-01-15T14:53:18.138Z,31.00
2023-01-15T14:55:57.596Z,37.00
2023-01-15T14:58:46.536Z,32.50
2023-01-15T15:01:37.253Z,43.33
2023-01-15T15:04:27.628Z,18.00
2023-01-15T15:07:14.854Z,52.00
2023-01-15T15:10:17.258Z,31.00
2023-01-15T15:13:05.976Z,30.50
2023-01-15T15:15:52.796Z,16.00
2023-01-15T15:18:31.205Z,36.50
2023-01-15T15:21:13.710Z,29.50
2023-01-15T15:24:07.692Z,35.00
2023-01-15T15:26:39.728Z,42.50
2023-01-15T15:29:09.676Z,35.00
2023-01-15T15:31:46.031Z,40.67
2023-01-15T15:34:34.276Z,45.00
2023-01-15T15:37:14.584Z,28.67
2023-01-15T15:40:15.378Z,24.00
2023-01-15T15:43:38.840Z,26.75
2023-01-15T15:46:41.990Z,36.00
2023-01-15T15:49:12.973Z,36.00
2023-01-15T15:51:54.978Z,53.00
2023-01-15T15:54:27.964Z,35.67
2023-01-15T15:57:18.455Z,39.50
2023-01-15T15:59:50.424Z,31.00
2023-01-15T16:02:25.627Z,34.33
2023-01-15T16:04:58.234Z,36.00
2023-01-15T16:07:34.711Z,38.00
2023-01-15T16:10:14.552Z,65.67
2023-01-15T16:12:50.710Z,30.50
2023-01-15T16:15:24.100Z,49.25
2023-01-15T16:17:53.986Z,58.00
2023-01-15T16:20:23.621Z,64.00
2023-01-15T16:22:57.031Z,36.50
2023-01-15T16:25:39.424Z,52.00
2023-01-15T16:28:26.494Z,69.50
2023-01-15T16:31:01.126Z,65.00
2023-01-15T16:33:30.677Z,57.00
2023-01-15T16:36:06.405Z,62.00
2023-01-15T16:38:49.165Z,51.50
2023-01-15T16:41:21.520Z,55.67
2023-01-15T16:43:55.107Z,53.50
2023-01-15T16:46:28.761Z,56.67
2023-01-15T16:49:21.255Z,52.25
2023-01-15T16:51:52.719Z,55.50
2023-01-15T16:54:30.828Z,56.00
2023-01-15T16:57:25.093Z,65.50
2023-01-15T16:59:56.137Z,67.00
2023-01-15T17:02:30.016Z,52.00
2023-01-15T17:04:59.994Z,75.00
2023-01-15T17:07:39.675Z,79.00
2023-01-15T17:10:22.415Z,57.67
2023-01-15T17:12:52.329Z,59.00
2023-01-15T17:15:21.119Z,50.50
2023-01-15T17:17:51.954Z,45.67
2023-01-15T17:20:27.306Z,41.00
2023-01-15T17:22:56.814Z,42.33
2023-01-15T17:25:35.049Z,37.33
2023-01-15T17:28:04.804Z,51.00
2023-01-15T17:30:35.039Z,38.50
2023-01-15T17:33:16.011Z,34.75
2023-01-15T17:35:48.703Z,32.00
2023-01-15T17:38:18.814Z,30.67
2023-01-15T17:40:48.007Z,35.00
2023-01-15T17:43:17.513Z,23.50
2023-01-15T17:45:46.195Z,24.50
2023-01-15T17:48:15.189Z,25.00
2023-01-15T17:50:44.284Z,41.50
2023-01-15T17:53:13.074Z,45.00
2023-01-15T17:56:01.930Z,43.00
2023-01-15T17:58:49.771Z,15.33
2023-01-15T18:01:40.944Z,63.00
2023-01-15T18:04:41.917Z,30.50
2023-01-15T18:07:12.447Z,25.33
2023-01-15T18:09:42.156Z,33.33
2023-01-15T18:12:12.070Z,37.00
2023-01-15T18:14:41.062Z,31.00
2023-01-15T18:17:35.768Z,21.33
2023-01-15T18:20:05.980Z,37.00
2023-01-15T18:22:34.767Z,45.00
2023-01-15T18:25:04.678Z,25.00
2023-01-15T18:27:34.492Z,35.67
2023-01-15T18:30:04.551Z,22.50
2023-01-15T18:32:33.615Z,46.50
2023-01-15T18:35:03.131Z,25.67
2023-01-15T18:37:36.204Z,30.50
2023-01-15T18:40:06.394Z,45.00
2023-01-15T18:42:58.661Z,50.00
2023-01-15T18:45:46.699Z,22.00
2023-01-15T18:48:16.005Z,43.00
2023-01-15T18:50:44.575Z,39.00
2023-01-15T18:53:14.387Z,53.75
2023-01-15T18:55:44.097Z,22.50
2023-01-15T18:58:16.062Z,41.50
2023-01-15T19:00:44.768Z,30.00
2023-01-15T19:03:13.944Z,19.50
2023-01-15T19:05:43.037Z,39.00
2023-01-15T19:08:11.827Z,37.00
2023-01-15T19:10:40.716Z,29.67
2023-01-15T19:13:09.910Z,44.00
2023-01-15T19:16:01.486Z,72.75
2023-01-15T19:18:42.322Z,67.00
2023-01-15T19:21:13.148Z,61.00
2023-01-15T19:23:42.028Z,81.50
2023-01-15T19:26:10.816Z,35.67
2023-01-15T19:28:39.910Z,62.00
2023-01-15T19:31:28.478Z,36.67
2023-01-15T19:34:13.176Z,48.00
2023-01-15T19:36:47.950Z,39.00
2023-01-15T19:39:17.723Z,33.50
2023-01-15T19:42:05.911Z,32.00
2023-01-15T19:44:53.636Z,35.00
2023-01-15T19:47:54.691Z,50.50
2023-01-15T19:50:46.608Z,40.33
2023-01-15T19:53:15.499Z,46.33
2023-01-15T19:55:45.514Z,62.00
2023-01-15T19:58:16.552Z,19.50
2023-01-15T20:00:48.774Z,22.33
2023-01-15T20:03:17.922Z,63.67
2023-01-15T20:05:47.429Z,14.00
2023-01-15T20:08:18.319Z,47.00
2023-01-15T20:10:50.530Z,52.25
2023-01-15T20:13:41.656Z,45.25
2023-01-15T20:16:22.590Z,24.50
2023-01-15T20:18:52.939Z,58.50
2023-01-15T20:21:23.057Z,76.50
2023-01-15T20:23:51.947Z,43.00
2023-01-15T20:26:24.552Z,49.00
2023-01-15T20:28:53.313Z,47.00
2023-01-15T20:31:22.430Z,72.00
2023-01-15T20:33:51.295Z,40.00
2023-01-15T20:36:20.193Z,74.00
2023-01-15T20:38:48.881Z,30.00
2023-01-15T20:41:36.910Z,59.33
2023-01-15T21:26:49.289Z,31.00
2023-01-15T21:29:18.077Z,31.00
2023-01-15T21:31:47.210Z,33.50
2023-01-15T21:34:16.675Z,19.00
2023-01-15T21:36:45.564Z,36.00
2023-01-15T21:39:16.016Z,28.00
2023-01-15T21:42:04.442Z,30.50
2023-01-15T21:44:35.807Z,29.00
2023-01-15T21:47:07.553Z,34.00
2023-01-15T21:49:36.334Z,30.33
2023-01-15T21:52:09.021Z,30.00
2023-01-15T21:54:38.106Z,31.00
2023-01-15T21:57:08.635Z,57.33
2023-01-15T21:59:38.041Z,39.75
2023-01-15T22:02:08.279Z,38.33
2023-01-15T22:04:37.352Z,45.33
2023-01-15T22:07:06.244Z,32.75
2023-01-15T22:09:35.443Z,84.50
2023-01-15T22:12:04.850Z,20.00
2023-01-15T22:14:34.155Z,42.25
2023-01-15T22:17:04.469Z,26.00
2023-01-15T22:19:33.981Z,44.00
2023-01-15T22:22:08.433Z,33.33
2023-01-15T22:24:39.475Z,31.00
2023-01-15T22:27:09.210Z,34.00
2023-01-15T22:29:40.566Z,40.00
2023-01-15T22:32:11.541Z,36.33
2023-01-15T22:34:41.556Z,24.50
2023-01-15T22:37:13.960Z,33.00
2023-01-15T22:39:42.702Z,31.33
2023-01-15T22:42:25.312Z,30.00
2023-01-15T22:44:56.257Z,21.00
2023-01-15T22:47:25.075Z,38.33
2023-01-15T22:49:53.932Z,10.00
2023-01-15T22:52:25.753Z,62.50
2023-01-15T22:54:55.295Z,29.00
2023-01-15T22:57:24.083Z,50.00
2023-01-15T22:59:53.180Z,44.00
2023-01-15T23:02:42.036Z,52.50
2023-01-15T23:05:11.852Z,40.67
2023-01-15T23:07:41.647Z,65.50
2023-01-15T23:10:12.461Z,46.00
2023-01-15T23:12:42.217Z,55.33
2023-01-15T23:15:13.619Z,39.00
2023-01-15T23:17:42.441Z,15.50
2023-01-15T23:20:13.348Z,38.50
2023-01-15T23:22:42.172Z,28.00
2023-01-15T23:25:11.060Z,54.33
2023-01-15T23:27:39.957Z,11.67
2023-01-15T23:30:09.973Z,41.00
2023-01-15T23:32:39.984Z,46.50
2023-01-15T23:35:09.387Z,56.33
2023-01-15T23:37:38.065Z,34.50
2023-01-15T23:40:07.978Z,29.00
2023-01-15T23:42:55.204Z,43.33
2023-01-15T23:45:42.845Z,42.00
2023-01-15T23:48:12.034Z,35.00
2023-01-15T23:50:40.928Z,46.25
2023-01-15T23:53:09.807Z,13.00
2023-01-15T23:55:38.502Z,67.00
2023-01-15T23:58:07.285Z,27.50
